createdAt,value
2023-02-03T00:01:36.028Z,102005.47
2023-02-03T00:04:02.505Z,101999.22
2023-02-03T00:06:29.001Z,101987.72
2023-02-03T00:08:59.289Z,101972.94
2023-02-03T00:11:26.606Z,101974.78
2023-02-03T00:13:53.090Z,101963.81
2023-02-03T00:16:19.672Z,101954.75
2023-02-03T00:18:46.115Z,101955.88
2023-02-03T00:21:14.498Z,101957.16
2023-02-03T00:23:41.780Z,101949.94
2023-02-03T00:26:10.330Z,101947.06
2023-02-03T00:28:37.055Z,101937.13
2023-02-03T00:31:03.685Z,101932.16
2023-02-03T00:33:30.161Z,101920.34
2023-02-03T00:35:56.739Z,101921.91
2023-02-03T00:38:26.800Z,101918.25
2023-02-03T00:40:54.087Z,101913.69
2023-02-03T00:43:21.377Z,101921.63
2023-02-03T00:45:48.068Z,101921.34
2023-02-03T00:48:14.745Z,101926.88
2023-02-03T00:50:41.244Z,101922.63
2023-02-03T00:53:07.944Z,101921.34
2023-02-03T00:55:34.445Z,101933.44
2023-02-03T00:58:00.951Z,101910.69
2023-02-03T01:00:27.789Z,101902.13
2023-02-03T01:02:54.766Z,101913.78
2023-02-03T01:05:21.236Z,101919.19
2023-02-03T01:07:47.705Z,101920.03
2023-02-03T01:10:14.779Z,101916.50
2023-02-03T01:12:41.249Z,101917.19
2023-02-03T01:15:08.239Z,101907.25
2023-02-03T01:17:35.522Z,101907.53
2023-02-03T01:20:01.924Z,101911.78
2023-02-03T01:22:31.893Z,101916.34
2023-02-03T01:24:58.335Z,101926.00
2023-02-03T01:27:24.996Z,101931.69
2023-02-03T01:29:51.662Z,101938.78
2023-02-03T01:32:18.301Z,101949.28
2023-02-03T01:34:44.942Z,101946.19
2023-02-03T01:37:11.484Z,101969.91
2023-02-03T01:39:38.002Z,101971.88
2023-02-03T01:42:05.803Z,101967.50
2023-02-03T01:44:43.318Z,101960.22
2023-02-03T01:47:31.176Z,101949.56
2023-02-03T01:50:16.014Z,101962.09
2023-02-03T01:52:45.277Z,101949.56
2023-02-03T01:55:16.209Z,101971.19
2023-02-03T01:57:53.981Z,101976.56
2023-02-03T02:00:20.636Z,101973.34
2023-02-03T02:02:49.230Z,101973.19
2023-02-03T02:05:24.704Z,101980.00
2023-02-03T02:07:51.482Z,101967.50
2023-02-03T02:10:18.054Z,101967.34
2023-02-03T02:12:44.884Z,101961.38
2023-02-03T02:15:11.417Z,101939.41
2023-02-03T02:17:56.045Z,101947.88
2023-02-03T02:20:47.092Z,101944.81
2023-02-03T02:23:34.512Z,101948.19
2023-02-03T02:26:07.009Z,101953.59
2023-02-03T02:28:54.679Z,101957.13
2023-02-03T02:31:45.271Z,101963.69
2023-02-03T02:34:24.697Z,101958.28
2023-02-03T02:37:13.290Z,101959.28
2023-02-03T02:39:43.441Z,101940.09
2023-02-03T02:42:34.775Z,101941.09
2023-02-03T02:45:10.500Z,101924.47
2023-02-03T02:47:38.210Z,101927.44
2023-02-03T02:50:10.798Z,101913.09
2023-02-03T02:52:41.518Z,101905.53
2023-02-03T02:55:14.710Z,101901.28
2023-02-03T02:57:43.106Z,101903.81
2023-02-03T03:00:10.266Z,101891.09
2023-02-03T03:02:37.007Z,101891.63
2023-02-03T03:05:09.031Z,101926.28
2023-02-03T03:07:44.134Z,101918.78
2023-02-03T03:10:15.806Z,101927.28
2023-02-03T03:12:48.929Z,101927.59
2023-02-03T03:15:22.272Z,101920.34
2023-02-03T03:18:02.540Z,101930.28
2023-02-03T03:20:32.763Z,101926.59
2023-02-03T03:23:07.429Z,101905.56
2023-02-03T03:25:43.495Z,101904.69
2023-02-03T03:28:16.216Z,101894.91
2023-02-03T03:30:43.412Z,101897.91
2023-02-03T03:33:10.177Z,101912.06
2023-02-03T03:35:46.634Z,101898.19
2023-02-03T03:38:31.848Z,101911.41
2023-02-03T03:41:05.179Z,101905.84
2023-02-03T03:43:38.121Z,101919.50
2023-02-03T03:46:13.566Z,101915.78
2023-02-03T03:48:53.075Z,101909.38
2023-02-03T03:51:39.626Z,101912.41
2023-02-03T03:54:09.827Z,101897.91
2023-02-03T03:57:06.511Z,101909.84
2023-02-03T03:59:38.291Z,101923.19
2023-02-03T04:02:05.311Z,101917.81
2023-02-03T04:04:35.197Z,101926.59
2023-02-03T04:07:01.702Z,101918.63
2023-02-03T04:09:28.139Z,101921.47
2023-02-03T04:12:03.719Z,101900.47
2023-02-03T04:14:32.359Z,101921.47
2023-02-03T04:16:59.052Z,101903.59
2023-02-03T04:19:25.848Z,101883.41
2023-02-03T04:21:52.345Z,101892.66
2023-02-03T04:24:18.774Z,101887.41
2023-02-03T04:26:45.254Z,101877.59
2023-02-03T04:29:11.731Z,101888.25
2023-02-03T04:31:41.214Z,101892.94
2023-02-03T04:34:07.610Z,101896.22
2023-02-03T04:36:34.163Z,101901.91
2023-02-03T04:39:00.602Z,101908.13
2023-02-03T04:41:27.158Z,101889.09
2023-02-03T04:43:53.619Z,101879.69
2023-02-03T04:46:20.092Z,101886.38
2023-02-03T04:48:46.632Z,101870.78
2023-02-03T04:51:13.225Z,101888.09
2023-02-03T04:53:39.711Z,101893.09
2023-02-03T04:56:06.340Z,101901.28
2023-02-03T04:58:32.929Z,101898.28
2023-02-03T05:01:07.929Z,101885.56
2023-02-03T05:03:35.604Z,101902.00
2023-02-03T05:06:03.219Z,101895.19
2023-02-03T05:08:30.438Z,101904.53
2023-02-03T05:10:57.381Z,101894.19
2023-02-03T05:13:23.810Z,101902.28
2023-02-03T05:15:50.213Z,101889.09
2023-02-03T05:18:16.740Z,101888.09
2023-02-03T05:20:43.158Z,101895.03
2023-02-03T05:23:09.709Z,101907.53
2023-02-03T05:25:36.246Z,101899.44
2023-02-03T05:28:02.792Z,101892.50
2023-02-03T05:30:29.714Z,101880.84
2023-02-03T05:32:56.488Z,101888.09
2023-02-03T05:35:22.923Z,101886.09
2023-02-03T05:37:49.425Z,101889.78
2023-02-03T05:40:34.776Z,101880.00
2023-02-03T05:43:01.226Z,101870.50
2023-02-03T05:45:27.721Z,101871.03
2023-02-03T05:47:54.324Z,101874.28
2023-02-03T05:50:22.701Z,101876.00
2023-02-03T05:52:49.838Z,101867.50
2023-02-03T05:55:16.407Z,101867.19
2023-02-03T05:57:42.958Z,101855.56
2023-02-03T06:00:10.067Z,101876.31
2023-02-03T06:02:36.535Z,101879.69
2023-02-03T06:05:03.556Z,101889.50
2023-02-03T06:07:29.962Z,101887.78
2023-02-03T06:09:56.480Z,101886.78
2023-02-03T06:12:23.137Z,101884.41
2023-02-03T06:14:49.614Z,101890.19
2023-02-03T06:17:16.092Z,101895.44
2023-02-03T06:19:42.518Z,101888.19
2023-02-03T06:22:09.022Z,101895.28
2023-02-03T06:24:35.517Z,101901.78
2023-02-03T06:27:02.130Z,101904.88
2023-02-03T06:29:28.673Z,101911.97
2023-02-03T06:31:55.268Z,101883.59
2023-02-03T06:34:21.981Z,101883.59
2023-02-03T06:36:49.135Z,101899.88
2023-02-03T06:39:15.778Z,101890.38
2023-02-03T06:41:42.295Z,101881.97
2023-02-03T06:44:08.726Z,101884.06
2023-02-03T06:46:35.347Z,101897.28
2023-02-03T06:49:01.875Z,101885.47
2023-02-03T06:51:28.480Z,101892.53
2023-02-03T06:53:55.073Z,101908.09
2023-02-03T06:56:21.555Z,101904.09
2023-02-03T06:58:48.003Z,101890.03
2023-02-03T07:01:14.815Z,101890.47
2023-02-03T07:03:41.292Z,101904.13
2023-02-03T07:06:08.561Z,101903.16
2023-02-03T07:08:35.076Z,101885.94
2023-02-03T07:11:01.485Z,101880.84
2023-02-03T07:13:28.225Z,101891.94
2023-02-03T07:15:54.805Z,101891.94
2023-02-03T07:18:45.739Z,101886.38
2023-02-03T07:21:11.033Z,101890.09
2023-02-03T07:23:37.584Z,101878.28
2023-02-03T07:26:06.384Z,101876.28
2023-02-03T07:28:34.261Z,101874.81
2023-02-03T07:31:01.199Z,101885.47
2023-02-03T07:33:28.534Z,101886.50
2023-02-03T07:35:56.591Z,101886.16
2023-02-03T07:38:31.291Z,101892.72
2023-02-03T07:41:17.992Z,101891.34
2023-02-03T07:43:44.889Z,101905.41
2023-02-03T07:46:11.420Z,101902.69
2023-02-03T07:48:37.991Z,101903.16
2023-02-03T07:51:04.902Z,101904.53
2023-02-03T07:53:31.927Z,101897.31
2023-02-03T07:56:05.645Z,101904.25
2023-02-03T07:58:32.595Z,101913.66
2023-02-03T08:00:59.906Z,101918.75
2023-02-03T08:03:26.586Z,101914.03
2023-02-03T08:05:53.581Z,101904.09
2023-02-03T08:08:20.159Z,101925.28
2023-02-03T08:10:46.881Z,101918.91
2023-02-03T08:13:14.435Z,101924.06
2023-02-03T08:15:40.902Z,101922.91
2023-02-03T08:18:09.647Z,101919.38
2023-02-03T08:20:36.121Z,101883.66
2023-02-03T08:23:02.674Z,101906.31
2023-02-03T08:25:29.287Z,101911.94
2023-02-03T08:27:56.037Z,101921.91
2023-02-03T08:30:23.077Z,101904.47
2023-02-03T08:32:50.015Z,101921.22
2023-02-03T08:35:16.614Z,101905.16
2023-02-03T08:37:43.582Z,101930.56
2023-02-03T08:40:10.771Z,101942.91
2023-02-03T08:42:37.368Z,101945.59
2023-02-03T08:45:05.287Z,101950.84
2023-02-03T08:47:31.969Z,101954.72
2023-02-03T08:49:58.464Z,101967.41
2023-02-03T08:52:25.036Z,101966.38
2023-02-03T08:54:51.676Z,101959.28
2023-02-03T08:57:18.224Z,101958.88
2023-02-03T08:59:45.021Z,101973.09
2023-02-03T09:02:16.088Z,101964.69
2023-02-03T09:04:43.468Z,101953.19
2023-02-03T09:07:11.033Z,101948.78
2023-02-03T09:09:37.741Z,101938.81
2023-02-03T09:12:06.569Z,101949.91
2023-02-03T09:14:33.684Z,101945.38
2023-02-03T09:17:03.040Z,101953.09
2023-02-03T09:19:29.934Z,101961.88
2023-02-03T09:21:57.570Z,101962.19
2023-02-03T09:24:27.434Z,101958.50
2023-02-03T09:26:56.944Z,101947.88
2023-02-03T09:29:23.991Z,101946.69
2023-02-03T09:31:53.803Z,101947.69
2023-02-03T09:34:21.220Z,101932.91
2023-02-03T09:36:48.302Z,101942.75
2023-02-03T09:39:15.842Z,101945.16
2023-02-03T09:42:04.000Z,101949.69
2023-02-03T09:44:55.533Z,101947.69
2023-02-03T09:47:26.809Z,101944.72
2023-02-03T09:50:02.856Z,101931.78
2023-02-03T09:52:38.350Z,101935.53
2023-02-03T09:55:36.321Z,101928.97
2023-02-03T09:58:06.442Z,101927.00
2023-02-03T10:00:37.830Z,101948.41
2023-02-03T10:03:35.520Z,101951.44
2023-02-03T10:06:33.032Z,101953.91
2023-02-03T10:09:22.301Z,101951.19
2023-02-03T10:12:06.976Z,101960.09
2023-02-03T10:15:02.958Z,101964.97
2023-02-03T10:17:52.967Z,101972.38
2023-02-03T10:20:35.738Z,101978.09
2023-02-03T10:23:07.665Z,101982.94
2023-02-03T10:25:41.310Z,101984.34
2023-02-03T10:28:34.921Z,101990.38
2023-02-03T10:31:08.650Z,102000.00
2023-02-03T10:33:35.536Z,102006.19
2023-02-03T10:36:22.539Z,101997.28
2023-02-03T10:39:16.558Z,101990.75
2023-02-03T10:41:43.243Z,101982.06
2023-02-03T10:44:13.068Z,101982.47
2023-02-03T10:46:42.229Z,101975.50
2023-02-03T10:49:12.858Z,101974.53
2023-02-03T10:51:51.013Z,101978.78
2023-02-03T10:54:34.714Z,101964.94
2023-02-03T10:57:10.880Z,101982.16
2023-02-03T10:59:42.410Z,101955.13
2023-02-03T11:02:28.674Z,101961.78
2023-02-03T11:05:16.377Z,101962.63
2023-02-03T11:07:44.693Z,101953.53
2023-02-03T11:10:36.032Z,101964.72
2023-02-03T11:13:15.405Z,101959.16
2023-02-03T11:15:53.563Z,101960.16
2023-02-03T11:18:41.792Z,101954.78
2023-02-03T11:21:16.169Z,101954.88
2023-02-03T11:24:00.728Z,101959.63
2023-02-03T11:26:32.228Z,101946.41
2023-02-03T11:29:01.745Z,101949.41
2023-02-03T11:31:33.025Z,101940.22
2023-02-03T11:34:06.317Z,101927.88
2023-02-03T11:36:35.250Z,101933.41
2023-02-03T11:39:21.169Z,101935.38
2023-02-03T11:41:48.605Z,101932.25
2023-02-03T11:44:29.143Z,101931.38
2023-02-03T11:47:02.765Z,101944.03
2023-02-03T11:49:55.017Z,101955.94
2023-02-03T11:52:46.093Z,101968.66
2023-02-03T11:55:32.936Z,101966.19
2023-02-03T11:58:28.969Z,101975.38
2023-02-03T12:01:17.249Z,101966.44
2023-02-03T12:04:15.191Z,101971.59
2023-02-03T12:06:59.988Z,101967.72
2023-02-03T12:09:43.279Z,101962.91
2023-02-03T12:12:51.044Z,101957.34
2023-02-03T12:15:26.089Z,101968.00
2023-02-03T12:18:24.118Z,101950.31
2023-02-03T12:21:04.716Z,101957.28
2023-02-03T12:23:53.839Z,101942.38
2023-02-03T12:26:23.151Z,101938.81
2023-02-03T12:29:03.764Z,101959.44
2023-02-03T12:31:35.326Z,101955.28
2023-02-03T12:34:30.572Z,101943.59
2023-02-03T12:37:13.915Z,101949.00
2023-02-03T12:40:01.217Z,101931.25
2023-02-03T12:42:32.472Z,101943.88
2023-02-03T12:45:05.205Z,101935.03
2023-02-03T12:47:40.048Z,101939.06
2023-02-03T12:50:16.424Z,101957.69
2023-02-03T12:52:57.310Z,101950.66
2023-02-03T12:55:37.983Z,101954.13
2023-02-03T12:58:10.171Z,101962.47
2023-02-03T13:00:51.565Z,101951.34
2023-02-03T13:03:28.457Z,101956.44
2023-02-03T13:06:16.684Z,101943.09
2023-02-03T13:08:55.921Z,101942.38
2023-02-03T13:11:36.508Z,101954.34
2023-02-03T13:14:15.544Z,101944.72
2023-02-03T13:16:44.930Z,101943.16
2023-02-03T13:19:15.708Z,101958.22
2023-02-03T13:21:42.337Z,101952.81
2023-02-03T13:24:11.190Z,101950.81
2023-02-03T13:27:11.888Z,101956.22
2023-02-03T13:29:53.032Z,101954.50
2023-02-03T13:32:26.295Z,101963.63
2023-02-03T13:35:12.942Z,101952.09
2023-02-03T13:37:58.815Z,101956.53
2023-02-03T13:41:00.358Z,101950.06
2023-02-03T13:43:39.286Z,101948.31
2023-02-03T13:46:18.342Z,101943.94
2023-02-03T13:48:46.788Z,101950.97
2023-02-03T13:51:15.303Z,101947.94
2023-02-03T13:53:47.066Z,101961.06
2023-02-03T13:56:16.511Z,101971.88
2023-02-03T13:58:42.941Z,101958.50
2023-02-03T14:01:33.236Z,101954.25
2023-02-03T14:04:02.010Z,101955.66
2023-02-03T14:06:37.746Z,101953.81
2023-02-03T14:09:30.513Z,101953.41
2023-02-03T14:12:18.773Z,101953.25
2023-02-03T14:15:03.156Z,101969.09
2023-02-03T14:17:35.627Z,101967.56
2023-02-03T14:20:25.194Z,101970.41
2023-02-03T14:22:57.206Z,101964.00
2023-02-03T14:25:25.592Z,101968.38
2023-02-03T14:28:06.373Z,101984.13
2023-02-03T14:30:33.516Z,101977.03
2023-02-03T14:33:02.783Z,101982.31
2023-02-03T14:35:37.173Z,101987.69
2023-02-03T14:38:11.104Z,101987.25
2023-02-03T14:40:58.702Z,101990.09
2023-02-03T14:43:37.718Z,101979.16
2023-02-03T14:46:23.158Z,101975.97
2023-02-03T14:49:18.667Z,101975.75
2023-02-03T14:52:27.426Z,101971.97
2023-02-03T14:55:18.204Z,101967.41
2023-02-03T14:57:58.391Z,101969.41
2023-02-03T15:00:33.400Z,101961.16
2023-02-03T15:03:22.566Z,101960.63
2023-02-03T15:05:51.496Z,101961.69
2023-02-03T15:08:47.085Z,101968.72
2023-02-03T15:11:22.790Z,101974.75
2023-02-03T15:13:49.415Z,101983.56
2023-02-03T15:16:21.439Z,101988.41
2023-02-03T15:18:55.682Z,101989.28
2023-02-03T15:21:23.014Z,101990.66
2023-02-03T15:23:53.932Z,101996.94
2023-02-03T15:26:24.559Z,102002.88
2023-02-03T15:29:02.703Z,101997.25
2023-02-03T15:31:29.395Z,102004.19
2023-02-03T15:34:00.802Z,102002.03
2023-02-03T15:36:39.545Z,102019.09
2023-02-03T15:39:16.985Z,102013.69
2023-02-03T15:41:45.198Z,102014.28
2023-02-03T15:44:26.581Z,102026.66
2023-02-03T15:46:54.657Z,102027.81
2023-02-03T15:49:30.503Z,102017.00
2023-02-03T15:52:20.686Z,102028.81
2023-02-03T15:54:54.704Z,102022.53
2023-02-03T15:57:29.696Z,102025.25
2023-02-03T16:00:03.321Z,102022.69
2023-02-03T16:02:33.774Z,102016.59
2023-02-03T16:05:20.457Z,102037.94
2023-02-03T16:07:46.998Z,102039.63
2023-02-03T16:10:33.763Z,102042.63
2023-02-03T16:13:20.056Z,102048.75
2023-02-03T16:16:05.700Z,102049.19
2023-02-03T16:18:35.809Z,102045.63
2023-02-03T16:21:04.547Z,102063.56
2023-02-03T16:23:31.456Z,102059.84
2023-02-03T16:26:13.111Z,102061.56
2023-02-03T16:28:58.733Z,102076.06
2023-02-03T16:31:44.127Z,102070.81
2023-02-03T16:34:37.340Z,102073.81
2023-02-03T16:37:39.507Z,102093.75
2023-02-03T16:40:24.890Z,102106.84
2023-02-03T16:43:10.104Z,102102.97
2023-02-03T16:45:55.504Z,102110.59
2023-02-03T16:48:40.742Z,102116.59
2023-02-03T16:51:18.395Z,102110.09
2023-02-03T16:53:45.728Z,102116.06
2023-02-03T16:56:13.479Z,102115.06
2023-02-03T16:58:40.540Z,102107.25
2023-02-03T17:01:09.497Z,102110.25
2023-02-03T17:03:36.677Z,102111.81
2023-02-03T17:06:06.763Z,102122.34
2023-02-03T17:08:34.631Z,102115.25
2023-02-03T17:11:15.877Z,102127.50
2023-02-03T17:13:42.907Z,102135.31
2023-02-03T17:16:15.406Z,102127.75
2023-02-03T17:18:42.331Z,102127.75
2023-02-03T17:21:11.507Z,102140.56
2023-02-03T17:23:38.654Z,102135.84
2023-02-03T17:26:05.856Z,102134.00
2023-02-03T17:28:33.588Z,102141.97
2023-02-03T17:31:03.476Z,102146.78
2023-02-03T17:33:31.606Z,102142.53
2023-02-03T17:36:12.551Z,102149.63
2023-02-03T17:55:09.559Z,102155.31
2023-02-03T17:57:37.429Z,102158.31
2023-02-03T18:00:05.377Z,102166.88
2023-02-03T18:02:31.950Z,102169.13
2023-02-03T18:04:58.603Z,102173.53
2023-02-03T18:07:25.269Z,102155.94
2023-02-03T18:09:54.206Z,102169.84
2023-02-03T18:12:21.793Z,102178.94
2023-02-03T18:14:49.207Z,102175.53
2023-02-03T18:17:15.843Z,102187.34
2023-02-03T18:19:46.592Z,102184.63
2023-02-03T18:22:15.845Z,102183.63
2023-02-03T18:24:44.808Z,102186.78
2023-02-03T18:27:16.554Z,102148.94
2023-02-03T18:29:45.103Z,102192.88
2023-02-03T18:32:16.024Z,102192.28
2023-02-03T18:34:42.581Z,102201.38
2023-02-03T18:37:09.359Z,102199.66
2023-02-03T18:39:36.038Z,102199.53
2023-02-03T18:42:03.360Z,102204.34
2023-02-03T18:44:31.533Z,102205.06
2023-02-03T18:47:06.392Z,102212.31
2023-02-03T18:49:34.370Z,102222.13
2023-02-03T18:52:00.884Z,102217.56
2023-02-03T18:54:29.476Z,102223.81
2023-02-03T18:56:58.911Z,102226.38
2023-02-03T18:59:25.826Z,102223.81
2023-02-03T19:01:52.672Z,102231.66
2023-02-03T19:04:19.818Z,102239.03
2023-02-03T19:06:46.736Z,102236.06
2023-02-03T19:09:16.082Z,102241.47
2023-02-03T19:11:43.082Z,102226.13
2023-02-03T19:14:09.749Z,102239.50
2023-02-03T19:16:37.424Z,102233.22
2023-02-03T19:19:03.952Z,102230.53
2023-02-03T19:21:31.536Z,102234.94
2023-02-03T19:23:58.053Z,102244.91
2023-02-03T19:26:24.628Z,102238.78
2023-02-03T19:28:52.518Z,102243.31
2023-02-03T19:31:19.547Z,102241.47
2023-02-03T19:33:46.530Z,102253.81
2023-02-03T19:36:13.118Z,102254.56
2023-02-03T19:38:39.805Z,102257.38
2023-02-03T19:41:14.432Z,102259.50
2023-02-03T19:43:41.283Z,102265.63
2023-02-03T19:46:08.532Z,102259.94
2023-02-03T19:48:36.209Z,102266.06
2023-02-03T19:51:02.697Z,102277.97
2023-02-03T19:53:31.330Z,102270.75
2023-02-03T19:55:58.008Z,102273.72
2023-02-03T19:58:24.960Z,102271.28
2023-02-03T20:00:51.538Z,102281.09
2023-02-03T20:03:19.573Z,102287.22
2023-02-03T20:05:46.547Z,102286.50
2023-02-03T20:08:14.679Z,102292.75
2023-02-03T20:10:42.342Z,102295.31
2023-02-03T20:13:10.081Z,102300.72
2023-02-03T20:15:36.647Z,102298.28
2023-02-03T20:18:03.767Z,102300.88
2023-02-03T20:20:30.666Z,102289.75
2023-02-03T20:22:57.380Z,102297.13
2023-02-03T20:25:24.183Z,102299.41
2023-02-03T20:27:50.972Z,102294.44
2023-02-03T20:30:17.651Z,102304.94
2023-02-03T20:32:44.229Z,102297.41
2023-02-03T20:35:12.583Z,102310.22
2023-02-03T20:37:39.292Z,102310.78
2023-02-03T20:40:17.157Z,102317.66
2023-02-03T20:42:43.811Z,102324.03
2023-02-03T20:45:14.219Z,102319.47
2023-02-03T20:47:41.189Z,102317.50
2023-02-03T20:50:34.443Z,102320.50
2023-02-03T20:53:15.964Z,102314.69
2023-02-03T20:55:42.870Z,102316.38
2023-02-03T20:58:23.179Z,102324.59
2023-02-03T21:00:50.569Z,102332.84
2023-02-03T21:03:37.700Z,102313.09
2023-02-03T21:06:24.595Z,102320.75
2023-02-03T21:08:51.102Z,102327.44
2023-02-03T21:11:20.465Z,102314.59
2023-02-03T21:13:47.965Z,102328.44
2023-02-03T21:16:16.799Z,102331.53
2023-02-03T21:18:53.669Z,102354.59
2023-02-03T21:21:27.811Z,102361.41
2023-02-03T21:23:54.722Z,102346.06
2023-02-03T21:26:26.460Z,102369.66
2023-02-03T21:28:55.694Z,102373.06
2023-02-03T21:31:27.279Z,102358.00
2023-02-03T21:34:23.949Z,102350.75
2023-02-03T21:36:50.463Z,102361.41
2023-02-03T21:39:27.590Z,102350.31
2023-02-03T21:41:54.546Z,102360.13
2023-02-03T21:44:31.556Z,102347.28
2023-02-03T21:47:04.953Z,102349.97
2023-02-03T21:49:35.410Z,102344.00
2023-02-03T21:52:01.878Z,102349.69
2023-02-03T21:54:33.575Z,102367.63
2023-02-03T21:57:00.747Z,102347.69
2023-02-03T21:59:34.748Z,102363.75
2023-02-03T22:02:02.328Z,102374.13
2023-02-03T22:04:29.495Z,102376.13
2023-02-03T22:06:58.845Z,102372.03
2023-02-03T22:09:26.870Z,102369.47
2023-02-03T22:11:53.610Z,102372.28
2023-02-03T22:14:23.631Z,102370.59
2023-02-03T22:16:50.504Z,102378.97
2023-02-03T22:19:17.490Z,102384.09
2023-02-03T22:21:44.728Z,102385.78
2023-02-03T22:24:11.194Z,102391.19
2023-02-03T22:26:37.688Z,102402.84
2023-02-03T22:29:05.510Z,102404.69
2023-02-03T22:31:34.444Z,102392.19
2023-02-03T22:34:01.074Z,102397.59
2023-02-03T22:36:27.625Z,102398.56
2023-02-03T22:38:54.187Z,102403.66
2023-02-03T22:41:21.482Z,102377.88
2023-02-03T22:43:48.076Z,102426.41
2023-02-03T22:46:14.637Z,102413.94
2023-02-03T22:48:41.164Z,102419.88
2023-02-03T22:51:07.891Z,102408.59
2023-02-03T22:53:34.769Z,102413.72
2023-02-03T22:56:01.497Z,102399.28
2023-02-03T22:58:28.122Z,102409.34
2023-02-03T23:00:54.695Z,102418.88
2023-02-03T23:03:21.209Z,102439.47
2023-02-03T23:05:47.693Z,102450.00
2023-02-03T23:08:14.201Z,102444.03
2023-02-03T23:10:40.699Z,102442.47
2023-02-03T23:13:08.062Z,102458.81
2023-02-03T23:15:34.533Z,102456.25
2023-02-03T23:18:01.026Z,102466.19
2023-02-03T23:20:27.673Z,102470.75
2023-02-03T23:22:54.285Z,102435.97
2023-02-03T23:25:20.838Z,102459.63
2023-02-03T23:27:47.353Z,102459.50
2023-02-03T23:30:14.102Z,102455.09
2023-02-03T23:32:40.602Z,102453.97
2023-02-03T23:35:26.065Z,102456.78
2023-02-03T23:37:52.549Z,102470.16
2023-02-03T23:40:36.761Z,102479.53
2023-02-03T23:43:03.271Z,102472.00
2023-02-03T23:45:29.956Z,102459.34
2023-02-03T23:47:56.492Z,102460.16
2023-02-03T23:50:22.987Z,102465.28
2023-02-03T23:52:49.449Z,102465.84
2023-02-03T23:55:18.516Z,102471.25
2023-02-03T23:57:45.760Z,102471.78
